Terminal Aerodrome Forecast
Issued by NWS Paducah, KY

Home | Current Version | Previous Version | Text Only | Print | Product List | Glossary Off
Versions: 1 2 3 4 5 6 7 8 9 10 11 12 13 14

319
FTUS43 KPAH 040520
TAFPAH
TAF
KPAH 040520Z 0406/0506 09005KT P6SM -RA SCT030 OVC070
     FM040900 07006KT 3SM BR SCT010 OVC030
      TEMPO 0410/0414 OVC010
     FM041500 VRB04KT 5SM BR BKN015
     FM041900 21005KT P6SM VCSH BKN020
     FM042300 30006KT P6SM BKN025
     FM050200 32004KT P6SM SCT025 BKN050=

USA.gov is the U.S. government's official web portal to all federal, state and local government web resources and services.